sensor_id;sensor_type;location;lat;lon;timestamp;P1;durP1;ratioP1;P2;durP2;ratioP2
75025;SDS011;63591;50.080;8.286;2022-12-07T00:03:39;8.85;;;4.85;;
75025;SDS011;63591;50.080;8.286;2022-12-07T00:06:06;8.50;;;4.97;;
75025;SDS011;63591;50.080;8.286;2022-12-07T00:08:34;9.27;;;5.03;;
75025;SDS011;63591;50.080;8.286;2022-12-07T00:11:01;8.77;;;5.05;;
75025;SDS011;63591;50.080;8.286;2022-12-07T00:13:28;9.68;;;5.55;;
75025;SDS011;63591;50.080;8.286;2022-12-07T00:15:54;9.93;;;5.20;;
75025;SDS011;63591;50.080;8.286;2022-12-07T00:18:19;9.50;;;5.13;;
75025;SDS011;63591;50.080;8.286;2022-12-07T00:20:44;9.50;;;5.33;;
75025;SDS011;63591;50.080;8.286;2022-12-07T00:23:10;9.13;;;5.00;;
75025;SDS011;63591;50.080;8.286;2022-12-07T00:25:35;8.57;;;4.70;;
75025;SDS011;63591;50.080;8.286;2022-12-07T00:28:00;8.90;;;4.83;;
75025;SDS011;63591;50.080;8.286;2022-12-07T00:30:26;7.87;;;4.60;;
75025;SDS011;63591;50.080;8.286;2022-12-07T00:32:51;9.43;;;4.87;;
75025;SDS011;63591;50.080;8.286;2022-12-07T00:35:16;9.20;;;4.90;;
75025;SDS011;63591;50.080;8.286;2022-12-07T00:37:41;9.63;;;4.70;;
75025;SDS011;63591;50.080;8.286;2022-12-07T00:40:07;8.40;;;4.80;;
75025;SDS011;63591;50.080;8.286;2022-12-07T00:42:33;8.15;;;4.68;;
75025;SDS011;63591;50.080;8.286;2022-12-07T00:44:58;8.53;;;4.60;;
75025;SDS011;63591;50.080;8.286;2022-12-07T00:47:23;8.30;;;4.77;;
75025;SDS011;63591;50.080;8.286;2022-12-07T00:49:48;7.87;;;4.33;;
75025;SDS011;63591;50.080;8.286;2022-12-07T00:52:14;8.43;;;4.27;;
75025;SDS011;63591;50.080;8.286;2022-12-07T00:54:39;7.68;;;4.32;;
75025;SDS011;63591;50.080;8.286;2022-12-07T00:57:05;8.17;;;4.03;;
75025;SDS011;63591;50.080;8.286;2022-12-07T00:59:30;7.43;;;4.30;;
75025;SDS011;63591;50.080;8.286;2022-12-07T01:01:55;8.50;;;4.30;;
75025;SDS011;63591;50.080;8.286;2022-12-07T01:04:21;7.50;;;4.30;;
75025;SDS011;63591;50.080;8.286;2022-12-07T01:06:46;8.60;;;4.20;;
75025;SDS011;63591;50.080;8.286;2022-12-07T01:09:11;9.03;;;4.50;;
75025;SDS011;63591;50.080;8.286;2022-12-07T01:11:36;6.88;;;4.25;;
75025;SDS011;63591;50.080;8.286;2022-12-07T01:14:02;9.50;;;4.80;;
75025;SDS011;63591;50.080;8.286;2022-12-07T01:16:28;8.13;;;4.15;;
75025;SDS011;63591;50.080;8.286;2022-12-07T01:18:56;7.68;;;4.32;;
75025;SDS011;63591;50.080;8.286;2022-12-07T01:21:23;9.00;;;4.05;;
75025;SDS011;63591;50.080;8.286;2022-12-07T01:23:53;7.22;;;3.90;;
75025;SDS011;63591;50.080;8.286;2022-12-07T01:26:19;8.07;;;4.20;;
75025;SDS011;63591;50.080;8.286;2022-12-07T01:28:46;7.25;;;4.20;;
75025;SDS011;63591;50.080;8.286;2022-12-07T01:31:13;7.77;;;4.33;;
75025;SDS011;63591;50.080;8.286;2022-12-07T01:33:40;6.82;;;4.00;;
75025;SDS011;63591;50.080;8.286;2022-12-07T01:36:07;7.53;;;4.20;;
75025;SDS011;63591;50.080;8.286;2022-12-07T01:38:45;8.48;;;4.30;;
75025;SDS011;63591;50.080;8.286;2022-12-07T01:41:12;7.53;;;4.18;;
75025;SDS011;63591;50.080;8.286;2022-12-07T01:46:34;7.95;;;4.05;;
75025;SDS011;63591;50.080;8.286;2022-12-07T01:48:59;7.07;;;3.77;;
75025;SDS011;63591;50.080;8.286;2022-12-07T01:51:25;8.35;;;3.80;;
75025;SDS011;63591;50.080;8.286;2022-12-07T01:53:52;7.53;;;4.07;;
75025;SDS011;63591;50.080;8.286;2022-12-07T01:56:19;7.40;;;4.10;;
75025;SDS011;63591;50.080;8.286;2022-12-07T01:58:48;8.13;;;3.80;;
75025;SDS011;63591;50.080;8.286;2022-12-07T02:01:14;6.75;;;3.70;;
75025;SDS011;63591;50.080;8.286;2022-12-07T02:03:41;7.38;;;3.80;;
75025;SDS011;63591;50.080;8.286;2022-12-07T02:06:08;7.45;;;4.03;;
75025;SDS011;63591;50.080;8.286;2022-12-07T02:08:36;6.63;;;4.03;;
75025;SDS011;63591;50.080;8.286;2022-12-07T02:11:02;7.13;;;4.13;;
75025;SDS011;63591;50.080;8.286;2022-12-07T02:13:30;7.47;;;4.30;;
75025;SDS011;63591;50.080;8.286;2022-12-07T02:21:38;8.52;;;3.97;;
75025;SDS011;63591;50.080;8.286;2022-12-07T02:27:36;7.65;;;4.07;;
75025;SDS011;63591;50.080;8.286;2022-12-07T02:29:56;7.57;;;3.60;;
75025;SDS011;63591;50.080;8.286;2022-12-07T02:32:31;8.00;;;3.80;;
75025;SDS011;63591;50.080;8.286;2022-12-07T02:35:07;7.13;;;3.70;;
75025;SDS011;63591;50.080;8.286;2022-12-07T02:40:31;6.70;;;3.80;;
75025;SDS011;63591;50.080;8.286;2022-12-07T02:43:04;7.22;;;3.78;;
75025;SDS011;63591;50.080;8.286;2022-12-07T02:45:34;7.47;;;3.95;;
75025;SDS011;63591;50.080;8.286;2022-12-07T02:48:03;8.55;;;4.05;;
75025;SDS011;63591;50.080;8.286;2022-12-07T02:50:31;8.20;;;3.78;;
75025;SDS011;63591;50.080;8.286;2022-12-07T02:52:57;7.73;;;4.13;;
75025;SDS011;63591;50.080;8.286;2022-12-07T02:55:24;7.43;;;3.83;;
75025;SDS011;63591;50.080;8.286;2022-12-07T03:04:02;6.82;;;3.50;;
75025;SDS011;63591;50.080;8.286;2022-12-07T03:06:36;7.37;;;3.70;;
75025;SDS011;63591;50.080;8.286;2022-12-07T03:09:14;7.55;;;3.83;;
75025;SDS011;63591;50.080;8.286;2022-12-07T03:11:48;6.78;;;3.72;;
75025;SDS011;63591;50.080;8.286;2022-12-07T03:14:24;7.85;;;4.05;;
75025;SDS011;63591;50.080;8.286;2022-12-07T03:17:02;7.60;;;3.88;;
75025;SDS011;63591;50.080;8.286;2022-12-07T03:19:35;7.30;;;3.70;;
75025;SDS011;63591;50.080;8.286;2022-12-07T03:22:02;6.78;;;3.65;;
75025;SDS011;63591;50.080;8.286;2022-12-07T03:24:33;7.28;;;4.13;;
75025;SDS011;63591;50.080;8.286;2022-12-07T03:27:06;6.40;;;3.38;;
75025;SDS011;63591;50.080;8.286;2022-12-07T03:29:40;6.80;;;3.55;;
75025;SDS011;63591;50.080;8.286;2022-12-07T03:32:16;6.90;;;3.30;;
75025;SDS011;63591;50.080;8.286;2022-12-07T03:35:16;6.18;;;3.35;;
75025;SDS011;63591;50.080;8.286;2022-12-07T03:37:52;6.85;;;3.60;;
75025;SDS011;63591;50.080;8.286;2022-12-07T03:40:29;5.97;;;3.03;;
75025;SDS011;63591;50.080;8.286;2022-12-07T03:42:59;7.05;;;3.53;;
75025;SDS011;63591;50.080;8.286;2022-12-07T03:45:37;6.37;;;3.20;;
75025;SDS011;63591;50.080;8.286;2022-12-07T03:53:24;5.93;;;3.15;;
75025;SDS011;63591;50.080;8.286;2022-12-07T03:55:58;6.57;;;3.30;;
75025;SDS011;63591;50.080;8.286;2022-12-07T03:58:24;6.60;;;3.10;;
75025;SDS011;63591;50.080;8.286;2022-12-07T04:00:50;6.35;;;3.40;;
75025;SDS011;63591;50.080;8.286;2022-12-07T04:03:16;6.40;;;3.30;;
75025;SDS011;63591;50.080;8.286;2022-12-07T04:05:41;6.50;;;3.20;;
75025;SDS011;63591;50.080;8.286;2022-12-07T04:08:08;7.53;;;3.47;;
75025;SDS011;63591;50.080;8.286;2022-12-07T04:10:33;6.40;;;3.30;;
75025;SDS011;63591;50.080;8.286;2022-12-07T04:12:59;5.53;;;2.97;;
75025;SDS011;63591;50.080;8.286;2022-12-07T04:15:25;6.50;;;3.13;;
75025;SDS011;63591;50.080;8.286;2022-12-07T04:17:50;6.50;;;3.30;;
75025;SDS011;63591;50.080;8.286;2022-12-07T04:20:15;6.47;;;3.33;;
75025;SDS011;63591;50.080;8.286;2022-12-07T04:22:41;6.35;;;3.50;;
75025;SDS011;63591;50.080;8.286;2022-12-07T04:25:06;6.53;;;3.25;;
75025;SDS011;63591;50.080;8.286;2022-12-07T04:27:32;6.60;;;3.30;;
75025;SDS011;63591;50.080;8.286;2022-12-07T04:29:57;5.83;;;3.23;;
75025;SDS011;63591;50.080;8.286;2022-12-07T04:32:23;6.20;;;3.33;;
75025;SDS011;63591;50.080;8.286;2022-12-07T04:34:49;7.38;;;3.47;;
75025;SDS011;63591;50.080;8.286;2022-12-07T04:37:14;7.33;;;3.60;;
75025;SDS011;63591;50.080;8.286;2022-12-07T04:39:39;7.17;;;3.67;;
75025;SDS011;63591;50.080;8.286;2022-12-07T04:42:05;6.30;;;3.40;;
75025;SDS011;63591;50.080;8.286;2022-12-07T04:44:30;7.53;;;3.47;;
75025;SDS011;63591;50.080;8.286;2022-12-07T04:46:56;7.23;;;3.70;;
75025;SDS011;63591;50.080;8.286;2022-12-07T04:49:22;6.80;;;3.45;;
75025;SDS011;63591;50.080;8.286;2022-12-07T04:51:48;6.50;;;3.37;;
75025;SDS011;63591;50.080;8.286;2022-12-07T04:54:15;7.88;;;4.00;;
75025;SDS011;63591;50.080;8.286;2022-12-07T04:56:41;6.15;;;3.40;;
75025;SDS011;63591;50.080;8.286;2022-12-07T04:59:06;6.80;;;3.50;;
75025;SDS011;63591;50.080;8.286;2022-12-07T05:01:32;7.07;;;3.58;;
75025;SDS011;63591;50.080;8.286;2022-12-07T05:03:58;7.57;;;4.00;;
75025;SDS011;63591;50.080;8.286;2022-12-07T05:06:24;7.40;;;3.92;;
75025;SDS011;63591;50.080;8.286;2022-12-07T05:08:49;6.87;;;3.47;;
75025;SDS011;63591;50.080;8.286;2022-12-07T05:11:15;6.55;;;3.42;;
75025;SDS011;63591;50.080;8.286;2022-12-07T05:13:59;7.05;;;3.80;;
75025;SDS011;63591;50.080;8.286;2022-12-07T05:16:25;6.35;;;3.50;;
75025;SDS011;63591;50.080;8.286;2022-12-07T05:18:50;6.57;;;3.50;;
75025;SDS011;63591;50.080;8.286;2022-12-07T05:21:15;7.03;;;3.50;;
75025;SDS011;63591;50.080;8.286;2022-12-07T05:23:41;6.60;;;3.67;;
75025;SDS011;63591;50.080;8.286;2022-12-07T05:26:06;6.77;;;3.43;;
75025;SDS011;63591;50.080;8.286;2022-12-07T05:28:31;7.57;;;3.87;;
75025;SDS011;63591;50.080;8.286;2022-12-07T05:30:57;7.77;;;3.93;;
75025;SDS011;63591;50.080;8.286;2022-12-07T05:33:22;5.80;;;3.37;;
75025;SDS011;63591;50.080;8.286;2022-12-07T05:35:47;7.73;;;4.00;;
75025;SDS011;63591;50.080;8.286;2022-12-07T05:38:12;6.57;;;3.60;;
75025;SDS011;63591;50.080;8.286;2022-12-07T05:40:38;7.23;;;3.80;;
75025;SDS011;63591;50.080;8.286;2022-12-07T05:43:03;6.72;;;3.72;;
75025;SDS011;63591;50.080;8.286;2022-12-07T05:45:28;8.20;;;3.78;;
75025;SDS011;63591;50.080;8.286;2022-12-07T05:47:54;7.77;;;3.80;;
75025;SDS011;63591;50.080;8.286;2022-12-07T05:50:19;7.13;;;3.80;;
75025;SDS011;63591;50.080;8.286;2022-12-07T05:52:44;6.57;;;3.60;;
75025;SDS011;63591;50.080;8.286;2022-12-07T05:55:10;7.63;;;4.20;;
75025;SDS011;63591;50.080;8.286;2022-12-07T05:57:35;6.27;;;3.70;;
75025;SDS011;63591;50.080;8.286;2022-12-07T06:00:00;8.43;;;3.70;;
75025;SDS011;63591;50.080;8.286;2022-12-07T06:02:26;6.68;;;3.75;;
75025;SDS011;63591;50.080;8.286;2022-12-07T06:04:51;6.90;;;3.57;;
75025;SDS011;63591;50.080;8.286;2022-12-07T06:07:16;7.20;;;3.90;;
75025;SDS011;63591;50.080;8.286;2022-12-07T06:09:42;6.73;;;3.67;;
75025;SDS011;63591;50.080;8.286;2022-12-07T06:12:09;8.17;;;3.70;;
75025;SDS011;63591;50.080;8.286;2022-12-07T06:14:54;6.95;;;3.47;;
75025;SDS011;63591;50.080;8.286;2022-12-07T06:17:19;7.47;;;3.77;;
75025;SDS011;63591;50.080;8.286;2022-12-07T06:19:51;7.00;;;3.60;;
75025;SDS011;63591;50.080;8.286;2022-12-07T06:22:16;7.07;;;3.60;;
75025;SDS011;63591;50.080;8.286;2022-12-07T06:24:43;8.30;;;3.75;;
75025;SDS011;63591;50.080;8.286;2022-12-07T06:27:09;6.20;;;3.50;;
75025;SDS011;63591;50.080;8.286;2022-12-07T06:29:35;8.10;;;3.85;;
75025;SDS011;63591;50.080;8.286;2022-12-07T06:32:01;7.57;;;3.50;;
75025;SDS011;63591;50.080;8.286;2022-12-07T06:34:29;6.45;;;3.55;;
75025;SDS011;63591;50.080;8.286;2022-12-07T06:36:55;7.00;;;3.65;;
75025;SDS011;63591;50.080;8.286;2022-12-07T06:39:21;6.93;;;3.60;;
75025;SDS011;63591;50.080;8.286;2022-12-07T06:41:48;6.43;;;3.40;;
75025;SDS011;63591;50.080;8.286;2022-12-07T06:44:14;7.18;;;3.78;;
75025;SDS011;63591;50.080;8.286;2022-12-07T06:46:40;6.80;;;3.53;;
75025;SDS011;63591;50.080;8.286;2022-12-07T06:49:05;6.47;;;3.53;;
75025;SDS011;63591;50.080;8.286;2022-12-07T06:51:32;6.78;;;3.50;;
75025;SDS011;63591;50.080;8.286;2022-12-07T06:53:57;6.53;;;3.67;;
75025;SDS011;63591;50.080;8.286;2022-12-07T06:56:23;6.53;;;3.70;;
75025;SDS011;63591;50.080;8.286;2022-12-07T06:58:48;7.20;;;3.80;;
75025;SDS011;63591;50.080;8.286;2022-12-07T07:01:15;7.90;;;3.92;;
75025;SDS011;63591;50.080;8.286;2022-12-07T07:03:42;6.00;;;3.25;;
75025;SDS011;63591;50.080;8.286;2022-12-07T07:06:08;6.47;;;3.38;;
75025;SDS011;63591;50.080;8.286;2022-12-07T07:08:37;6.82;;;3.38;;
75025;SDS011;63591;50.080;8.286;2022-12-07T07:11:04;7.80;;;3.55;;
75025;SDS011;63591;50.080;8.286;2022-12-07T07:13:30;7.77;;;3.70;;
75025;SDS011;63591;50.080;8.286;2022-12-07T07:15:56;6.47;;;3.30;;
75025;SDS011;63591;50.080;8.286;2022-12-07T07:18:22;6.75;;;3.40;;
75025;SDS011;63591;50.080;8.286;2022-12-07T07:20:47;6.53;;;3.20;;
75025;SDS011;63591;50.080;8.286;2022-12-07T07:23:13;6.33;;;3.30;;
75025;SDS011;63591;50.080;8.286;2022-12-07T07:25:38;7.57;;;3.17;;
75025;SDS011;63591;50.080;8.286;2022-12-07T07:28:04;6.13;;;3.30;;
75025;SDS011;63591;50.080;8.286;2022-12-07T07:30:29;6.07;;;3.30;;
75025;SDS011;63591;50.080;8.286;2022-12-07T07:32:56;8.55;;;3.70;;
75025;SDS011;63591;50.080;8.286;2022-12-07T07:35:23;6.35;;;3.13;;
75025;SDS011;63591;50.080;8.286;2022-12-07T07:37:49;6.00;;;3.22;;
75025;SDS011;63591;50.080;8.286;2022-12-07T07:40:14;6.33;;;3.57;;
75025;SDS011;63591;50.080;8.286;2022-12-07T07:42:39;7.00;;;3.80;;
75025;SDS011;63591;50.080;8.286;2022-12-07T07:45:05;6.50;;;3.40;;
75025;SDS011;63591;50.080;8.286;2022-12-07T07:47:31;7.68;;;3.75;;
75025;SDS011;63591;50.080;8.286;2022-12-07T07:49:56;7.27;;;3.60;;
75025;SDS011;63591;50.080;8.286;2022-12-07T07:52:22;6.18;;;3.42;;
75025;SDS011;63591;50.080;8.286;2022-12-07T07:54:47;6.97;;;3.60;;
75025;SDS011;63591;50.080;8.286;2022-12-07T07:57:12;6.67;;;3.30;;
75025;SDS011;63591;50.080;8.286;2022-12-07T07:59:38;6.53;;;3.30;;
75025;SDS011;63591;50.080;8.286;2022-12-07T08:02:03;6.00;;;3.30;;
75025;SDS011;63591;50.080;8.286;2022-12-07T08:04:28;6.47;;;3.27;;
75025;SDS011;63591;50.080;8.286;2022-12-07T08:06:53;6.50;;;3.10;;
75025;SDS011;63591;50.080;8.286;2022-12-07T08:09:19;5.30;;;2.90;;
75025;SDS011;63591;50.080;8.286;2022-12-07T08:11:44;6.70;;;3.28;;
75025;SDS011;63591;50.080;8.286;2022-12-07T08:14:10;5.70;;;3.30;;
75025;SDS011;63591;50.080;8.286;2022-12-07T08:16:36;6.43;;;3.22;;
75025;SDS011;63591;50.080;8.286;2022-12-07T08:19:04;6.90;;;3.20;;
75025;SDS011;63591;50.080;8.286;2022-12-07T08:21:29;5.93;;;3.10;;
75025;SDS011;63591;50.080;8.286;2022-12-07T08:23:55;6.53;;;2.83;;
75025;SDS011;63591;50.080;8.286;2022-12-07T08:26:22;6.28;;;3.00;;
75025;SDS011;63591;50.080;8.286;2022-12-07T08:28:47;5.87;;;3.20;;
75025;SDS011;63591;50.080;8.286;2022-12-07T08:31:14;6.07;;;3.13;;
75025;SDS011;63591;50.080;8.286;2022-12-07T08:33:44;6.13;;;2.95;;
75025;SDS011;63591;50.080;8.286;2022-12-07T08:36:11;5.53;;;2.90;;
75025;SDS011;63591;50.080;8.286;2022-12-07T08:38:38;6.07;;;3.05;;
75025;SDS011;63591;50.080;8.286;2022-12-07T08:41:04;6.28;;;3.05;;
75025;SDS011;63591;50.080;8.286;2022-12-07T08:43:30;8.10;;;3.35;;
75025;SDS011;63591;50.080;8.286;2022-12-07T08:48:36;6.32;;;3.00;;
75025;SDS011;63591;50.080;8.286;2022-12-07T08:51:05;5.90;;;2.88;;
75025;SDS011;63591;50.080;8.286;2022-12-07T08:53:31;6.77;;;3.13;;
75025;SDS011;63591;50.080;8.286;2022-12-07T08:55:58;6.07;;;3.03;;
75025;SDS011;63591;50.080;8.286;2022-12-07T08:58:24;6.47;;;3.20;;
75025;SDS011;63591;50.080;8.286;2022-12-07T09:00:49;5.40;;;2.87;;
75025;SDS011;63591;50.080;8.286;2022-12-07T09:03:15;5.30;;;2.75;;
75025;SDS011;63591;50.080;8.286;2022-12-07T09:05:40;5.23;;;2.90;;
75025;SDS011;63591;50.080;8.286;2022-12-07T09:08:06;5.30;;;2.63;;
75025;SDS011;63591;50.080;8.286;2022-12-07T09:10:32;6.75;;;2.88;;
75025;SDS011;63591;50.080;8.286;2022-12-07T09:12:58;6.90;;;3.20;;
75025;SDS011;63591;50.080;8.286;2022-12-07T09:15:27;5.78;;;2.78;;
75025;SDS011;63591;50.080;8.286;2022-12-07T09:17:53;6.25;;;3.00;;
75025;SDS011;63591;50.080;8.286;2022-12-07T09:20:18;4.73;;;2.50;;
75025;SDS011;63591;50.080;8.286;2022-12-07T09:22:43;4.90;;;2.57;;
75025;SDS011;63591;50.080;8.286;2022-12-07T09:25:09;5.37;;;2.70;;
75025;SDS011;63591;50.080;8.286;2022-12-07T09:27:34;5.10;;;2.63;;
75025;SDS011;63591;50.080;8.286;2022-12-07T09:30:00;5.60;;;2.40;;
75025;SDS011;63591;50.080;8.286;2022-12-07T09:32:25;5.30;;;2.57;;
75025;SDS011;63591;50.080;8.286;2022-12-07T09:34:51;7.70;;;3.40;;
75025;SDS011;63591;50.080;8.286;2022-12-07T09:37:16;6.43;;;2.50;;
75025;SDS011;63591;50.080;8.286;2022-12-07T09:39:41;5.13;;;2.47;;
75025;SDS011;63591;50.080;8.286;2022-12-07T09:42:07;4.43;;;2.33;;
75025;SDS011;63591;50.080;8.286;2022-12-07T09:44:33;5.70;;;2.27;;
75025;SDS011;63591;50.080;8.286;2022-12-07T09:47:00;5.28;;;2.58;;
75025;SDS011;63591;50.080;8.286;2022-12-07T09:49:27;5.68;;;2.50;;
75025;SDS011;63591;50.080;8.286;2022-12-07T09:52:03;6.28;;;2.53;;
75025;SDS011;63591;50.080;8.286;2022-12-07T09:54:29;6.43;;;2.40;;
75025;SDS011;63591;50.080;8.286;2022-12-07T09:56:55;5.35;;;2.40;;
75025;SDS011;63591;50.080;8.286;2022-12-07T09:59:21;4.80;;;2.33;;
75025;SDS011;63591;50.080;8.286;2022-12-07T10:01:48;4.40;;;2.40;;
75025;SDS011;63591;50.080;8.286;2022-12-07T10:04:47;6.13;;;2.50;;
75025;SDS011;63591;50.080;8.286;2022-12-07T10:07:06;5.50;;;2.58;;
75025;SDS011;63591;50.080;8.286;2022-12-07T10:09:31;5.83;;;2.60;;
75025;SDS011;63591;50.080;8.286;2022-12-07T10:12:07;5.57;;;2.60;;
75025;SDS011;63591;50.080;8.286;2022-12-07T10:14:35;5.82;;;2.45;;
75025;SDS011;63591;50.080;8.286;2022-12-07T10:17:20;4.55;;;2.20;;
75025;SDS011;63591;50.080;8.286;2022-12-07T10:22:59;4.70;;;2.13;;
75025;SDS011;63591;50.080;8.286;2022-12-07T10:25:28;4.93;;;2.20;;
75025;SDS011;63591;50.080;8.286;2022-12-07T10:28:02;4.97;;;2.20;;
75025;SDS011;63591;50.080;8.286;2022-12-07T10:30:34;4.65;;;2.42;;
75025;SDS011;63591;50.080;8.286;2022-12-07T10:33:55;5.07;;;2.22;;
75025;SDS011;63591;50.080;8.286;2022-12-07T10:36:22;6.43;;;2.20;;
75025;SDS011;63591;50.080;8.286;2022-12-07T10:39:33;4.68;;;2.17;;
75025;SDS011;63591;50.080;8.286;2022-12-07T10:41:56;4.25;;;1.90;;
75025;SDS011;63591;50.080;8.286;2022-12-07T10:44:23;5.13;;;2.05;;
75025;SDS011;63591;50.080;8.286;2022-12-07T10:55:22;4.50;;;1.90;;
75025;SDS011;63591;50.080;8.286;2022-12-07T10:58:05;5.07;;;1.60;;
75025;SDS011;63591;50.080;8.286;2022-12-07T11:00:58;4.97;;;1.65;;
75025;SDS011;63591;50.080;8.286;2022-12-07T11:12:13;5.75;;;2.05;;
75025;SDS011;63591;50.080;8.286;2022-12-07T11:15:13;5.35;;;1.60;;
75025;SDS011;63591;50.080;8.286;2022-12-07T11:20:37;4.00;;;1.60;;
75025;SDS011;63591;50.080;8.286;2022-12-07T11:23:20;4.10;;;1.75;;
75025;SDS011;63591;50.080;8.286;2022-12-07T11:29:06;4.50;;;1.83;;
75025;SDS011;63591;50.080;8.286;2022-12-07T11:34:43;4.25;;;1.50;;
75025;SDS011;63591;50.080;8.286;2022-12-07T11:37:20;4.43;;;1.70;;
75025;SDS011;63591;50.080;8.286;2022-12-07T11:39:51;4.03;;;1.70;;
75025;SDS011;63591;50.080;8.286;2022-12-07T11:42:22;3.78;;;1.58;;
75025;SDS011;63591;50.080;8.286;2022-12-07T11:47:47;3.80;;;1.30;;
75025;SDS011;63591;50.080;8.286;2022-12-07T11:50:21;3.60;;;1.50;;
75025;SDS011;63591;50.080;8.286;2022-12-07T11:52:52;4.20;;;1.40;;
75025;SDS011;63591;50.080;8.286;2022-12-07T11:55:40;4.25;;;1.58;;
75025;SDS011;63591;50.080;8.286;2022-12-07T11:58:20;3.45;;;1.35;;
75025;SDS011;63591;50.080;8.286;2022-12-07T12:00:51;3.70;;;1.50;;
75025;SDS011;63591;50.080;8.286;2022-12-07T12:03:33;4.20;;;1.48;;
75025;SDS011;63591;50.080;8.286;2022-12-07T12:06:00;3.53;;;1.38;;
75025;SDS011;63591;50.080;8.286;2022-12-07T12:08:30;4.10;;;1.30;;
75025;SDS011;63591;50.080;8.286;2022-12-07T12:16:27;4.70;;;1.70;;
75025;SDS011;63591;50.080;8.286;2022-12-07T12:19:10;4.22;;;1.70;;
75025;SDS011;63591;50.080;8.286;2022-12-07T12:21:49;4.75;;;1.60;;
75025;SDS011;63591;50.080;8.286;2022-12-07T12:24:22;3.95;;;1.45;;
75025;SDS011;63591;50.080;8.286;2022-12-07T12:27:02;3.90;;;1.60;;
75025;SDS011;63591;50.080;8.286;2022-12-07T12:29:35;4.68;;;1.67;;
75025;SDS011;63591;50.080;8.286;2022-12-07T12:32:05;4.68;;;1.50;;
75025;SDS011;63591;50.080;8.286;2022-12-07T12:34:38;5.03;;;1.88;;
75025;SDS011;63591;50.080;8.286;2022-12-07T12:42:53;4.45;;;1.60;;
75025;SDS011;63591;50.080;8.286;2022-12-07T12:45:23;4.88;;;1.58;;
75025;SDS011;63591;50.080;8.286;2022-12-07T12:48:00;7.13;;;2.33;;
75025;SDS011;63591;50.080;8.286;2022-12-07T12:50:30;4.85;;;1.48;;
75025;SDS011;63591;50.080;8.286;2022-12-07T12:53:03;5.13;;;1.70;;
75025;SDS011;63591;50.080;8.286;2022-12-07T12:58:40;5.15;;;1.55;;
75025;SDS011;63591;50.080;8.286;2022-12-07T13:01:48;4.20;;;1.80;;
75025;SDS011;63591;50.080;8.286;2022-12-07T13:04:12;5.03;;;1.75;;
75025;SDS011;63591;50.080;8.286;2022-12-07T13:06:43;4.57;;;1.70;;
75025;SDS011;63591;50.080;8.286;2022-12-07T13:09:17;4.57;;;1.60;;
75025;SDS011;63591;50.080;8.286;2022-12-07T13:12:00;4.07;;;1.40;;
75025;SDS011;63591;50.080;8.286;2022-12-07T13:14:37;4.57;;;1.60;;
75025;SDS011;63591;50.080;8.286;2022-12-07T13:17:11;4.75;;;1.60;;
75025;SDS011;63591;50.080;8.286;2022-12-07T13:19:58;4.90;;;1.65;;
75025;SDS011;63591;50.080;8.286;2022-12-07T13:25:20;3.87;;;1.50;;
75025;SDS011;63591;50.080;8.286;2022-12-07T13:27:55;4.40;;;1.50;;
75025;SDS011;63591;50.080;8.286;2022-12-07T13:30:25;3.80;;;1.55;;
75025;SDS011;63591;50.080;8.286;2022-12-07T13:32:54;4.45;;;1.50;;
75025;SDS011;63591;50.080;8.286;2022-12-07T13:35:54;4.65;;;1.40;;
75025;SDS011;63591;50.080;8.286;2022-12-07T13:38:18;4.67;;;1.60;;
75025;SDS011;63591;50.080;8.286;2022-12-07T13:41:04;4.88;;;1.45;;
75025;SDS011;63591;50.080;8.286;2022-12-07T13:43:44;4.10;;;1.60;;
75025;SDS011;63591;50.080;8.286;2022-12-07T13:46:11;5.03;;;1.52;;
75025;SDS011;63591;50.080;8.286;2022-12-07T13:48:48;4.25;;;1.60;;
75025;SDS011;63591;50.080;8.286;2022-12-07T13:51:19;3.80;;;1.40;;
75025;SDS011;63591;50.080;8.286;2022-12-07T13:53:55;5.43;;;1.48;;
75025;SDS011;63591;50.080;8.286;2022-12-07T13:56:31;4.90;;;1.40;;
75025;SDS011;63591;50.080;8.286;2022-12-07T13:58:58;5.05;;;1.55;;
75025;SDS011;63591;50.080;8.286;2022-12-07T14:01:25;4.55;;;1.50;;
75025;SDS011;63591;50.080;8.286;2022-12-07T14:03:50;4.97;;;1.60;;
75025;SDS011;63591;50.080;8.286;2022-12-07T14:06:18;4.60;;;1.73;;
75025;SDS011;63591;50.080;8.286;2022-12-07T14:08:47;3.85;;;1.40;;
75025;SDS011;63591;50.080;8.286;2022-12-07T14:11:14;3.83;;;1.40;;
75025;SDS011;63591;50.080;8.286;2022-12-07T14:13:55;5.20;;;1.70;;
75025;SDS011;63591;50.080;8.286;2022-12-07T14:16:30;4.28;;;1.25;;
75025;SDS011;63591;50.080;8.286;2022-12-07T14:19:00;3.95;;;1.27;;
75025;SDS011;63591;50.080;8.286;2022-12-07T14:21:30;3.85;;;1.30;;
75025;SDS011;63591;50.080;8.286;2022-12-07T14:26:48;5.03;;;1.48;;
75025;SDS011;63591;50.080;8.286;2022-12-07T14:29:18;5.28;;;1.40;;
75025;SDS011;63591;50.080;8.286;2022-12-07T14:31:50;4.38;;;1.45;;
75025;SDS011;63591;50.080;8.286;2022-12-07T14:34:16;5.18;;;1.42;;
75025;SDS011;63591;50.080;8.286;2022-12-07T14:36:45;3.13;;;1.13;;
75025;SDS011;63591;50.080;8.286;2022-12-07T14:39:10;6.55;;;1.40;;
75025;SDS011;63591;50.080;8.286;2022-12-07T14:41:36;4.40;;;1.20;;
75025;SDS011;63591;50.080;8.286;2022-12-07T14:44:16;3.53;;;1.10;;
75025;SDS011;63591;50.080;8.286;2022-12-07T14:46:43;5.40;;;1.20;;
75025;SDS011;63591;50.080;8.286;2022-12-07T14:49:08;4.50;;;1.30;;
75025;SDS011;63591;50.080;8.286;2022-12-07T14:51:34;4.87;;;1.20;;
75025;SDS011;63591;50.080;8.286;2022-12-07T14:54:03;3.45;;;1.15;;
75025;SDS011;63591;50.080;8.286;2022-12-07T14:56:30;3.53;;;1.30;;
75025;SDS011;63591;50.080;8.286;2022-12-07T14:58:55;3.33;;;1.20;;
75025;SDS011;63591;50.080;8.286;2022-12-07T15:01:20;5.30;;;1.27;;
75025;SDS011;63591;50.080;8.286;2022-12-07T15:03:46;4.63;;;1.20;;
75025;SDS011;63591;50.080;8.286;2022-12-07T15:06:15;4.07;;;1.30;;
75025;SDS011;63591;50.080;8.286;2022-12-07T15:08:42;4.27;;;1.20;;
75025;SDS011;63591;50.080;8.286;2022-12-07T15:11:11;3.42;;;1.20;;
75025;SDS011;63591;50.080;8.286;2022-12-07T15:13:38;4.55;;;1.20;;
75025;SDS011;63591;50.080;8.286;2022-12-07T15:16:22;5.20;;;1.40;;
75025;SDS011;63591;50.080;8.286;2022-12-07T15:18:47;3.40;;;1.17;;
75025;SDS011;63591;50.080;8.286;2022-12-07T15:21:13;3.70;;;1.33;;
75025;SDS011;63591;50.080;8.286;2022-12-07T15:23:39;4.47;;;1.30;;
75025;SDS011;63591;50.080;8.286;2022-12-07T15:26:05;4.10;;;1.40;;
75025;SDS011;63591;50.080;8.286;2022-12-07T15:28:30;4.60;;;1.50;;
75025;SDS011;63591;50.080;8.286;2022-12-07T15:30:55;3.80;;;1.30;;
75025;SDS011;63591;50.080;8.286;2022-12-07T15:33:21;3.73;;;1.13;;
75025;SDS011;63591;50.080;8.286;2022-12-07T15:35:46;4.57;;;1.20;;
75025;SDS011;63591;50.080;8.286;2022-12-07T15:38:11;4.87;;;1.37;;
75025;SDS011;63591;50.080;8.286;2022-12-07T15:40:37;4.68;;;1.50;;
75025;SDS011;63591;50.080;8.286;2022-12-07T15:43:02;4.07;;;1.37;;
75025;SDS011;63591;50.080;8.286;2022-12-07T15:45:28;4.75;;;1.23;;
75025;SDS011;63591;50.080;8.286;2022-12-07T15:47:53;3.67;;;1.20;;
75025;SDS011;63591;50.080;8.286;2022-12-07T15:50:20;4.65;;;1.40;;
75025;SDS011;63591;50.080;8.286;2022-12-07T15:52:46;5.13;;;1.47;;
75025;SDS011;63591;50.080;8.286;2022-12-07T15:55:11;4.13;;;1.60;;
75025;SDS011;63591;50.080;8.286;2022-12-07T15:57:37;3.63;;;1.27;;
75025;SDS011;63591;50.080;8.286;2022-12-07T16:00:06;4.47;;;1.40;;
75025;SDS011;63591;50.080;8.286;2022-12-07T16:02:33;4.63;;;1.33;;
75025;SDS011;63591;50.080;8.286;2022-12-07T16:04:59;4.80;;;1.50;;
75025;SDS011;63591;50.080;8.286;2022-12-07T16:07:24;4.37;;;1.47;;
75025;SDS011;63591;50.080;8.286;2022-12-07T16:09:50;4.10;;;1.30;;
75025;SDS011;63591;50.080;8.286;2022-12-07T16:12:15;4.97;;;1.50;;
75025;SDS011;63591;50.080;8.286;2022-12-07T16:14:41;4.38;;;1.48;;
75025;SDS011;63591;50.080;8.286;2022-12-07T16:17:07;4.77;;;1.40;;
75025;SDS011;63591;50.080;8.286;2022-12-07T16:19:34;4.38;;;1.40;;
75025;SDS011;63591;50.080;8.286;2022-12-07T16:22:00;4.13;;;1.38;;